Time;durP1;ratioP1;P1;durP2;ratioP2;P2;SDS_P1;SDS_P2;PMS_P1;PMS_P2;Temp;Humidity;BMP_temperature;BMP_pressure;BME280_temperature;BME280_humidity;BME280_pressure;Samples;Min_cycle;Max_cycle;Signal;HPM_P1;HPM_P2
2023/01/28 00:00:28;;;;;;;12.77;11.40;;;2.20;99.90;;;;;;4836474;29;20045;-85
2023/01/28 00:02:56;;;;;;;13.00;11.60;;;2.20;99.90;;;;;;4827997;29;20045;-85
2023/01/28 00:05:22;;;;;;;13.77;12.13;;;2.20;99.90;;;;;;4848026;29;20115;-83
2023/01/28 00:07:55;;;;;;;14.57;11.73;;;2.10;99.90;;;;;;4847701;29;20389;-84
2023/01/28 00:10:30;;;;;;;;;;;;;;;;;;;;;
2023/01/28 00:13:06;;;;;;;13.23;11.90;;;2.10;99.90;;;;;;4842806;29;20110;-84
2023/01/28 00:15:55;;;;;;;13.03;11.73;;;2.10;99.90;;;;;;4815921;29;20045;-84
2023/01/28 00:18:24;;;;;;;14.05;11.98;;;2.00;99.90;;;;;;4827558;29;20053;-85
2023/01/28 00:21:07;;;;;;;12.23;10.93;;;2.00;99.90;;;;;;4856762;29;20037;-84
2023/01/28 00:23:38;;;;;;;12.07;10.77;;;2.10;99.90;;;;;;4863745;29;20064;-85
2023/01/28 00:26:13;;;;;;;12.47;11.27;;;2.00;99.90;;;;;;4833688;29;20068;-85
2023/01/28 00:28:45;;;;;;;11.37;10.27;;;2.10;99.90;;;;;;4838035;29;20195;-85
2023/01/28 00:31:17;;;;;;;12.23;11.00;;;2.10;99.90;;;;;;4832209;29;20063;-85
2023/01/28 00:33:55;;;;;;;11.93;10.73;;;2.10;99.90;;;;;;4837226;29;20051;-85
2023/01/28 00:36:38;;;;;;;12.97;11.57;;;2.10;99.90;;;;;;4835106;29;20494;-85
2023/01/28 00:39:14;;;;;;;11.20;10.10;;;2.10;99.90;;;;;;4830403;29;20081;-84
2023/01/28 00:41:48;;;;;;;11.03;10.03;;;2.10;99.90;;;;;;4845486;29;20062;-85
2023/01/28 00:44:24;;;;;;;11.90;10.67;;;2.10;99.90;;;;;;4863414;29;20066;-85
2023/01/28 00:46:50;;;;;;;11.30;10.10;;;2.10;99.90;;;;;;4833518;29;20052;-85
2023/01/28 00:49:22;;;;;;;12.07;10.97;;;2.10;99.90;;;;;;4848296;29;20049;-85
2023/01/28 00:52:03;;;;;;;12.77;11.30;;;2.10;99.90;;;;;;4841383;29;20052;-85
2023/01/28 00:54:40;;;;;;;12.03;10.73;;;2.10;99.90;;;;;;4830654;29;20094;-85
2023/01/28 00:57:15;;;;;;;12.77;11.47;;;2.10;99.90;;;;;;4840046;29;20045;-85
2023/01/28 00:59:50;;;;;;;12.23;10.97;;;2.10;99.90;;;;;;4847151;29;20113;-85
2023/01/28 01:02:32;;;;;;;11.90;10.80;;;2.10;99.90;;;;;;4829698;29;20053;-85
2023/01/28 01:05:04;;;;;;;12.23;11.05;;;2.10;99.90;;;;;;4848388;29;20045;-85
2023/01/28 01:08:03;;;;;;;13.05;11.80;;;2.10;99.90;;;;;;4860264;29;20045;-85
2023/01/28 01:10:27;;;;;;;12.82;11.52;;;2.10;99.90;;;;;;4846822;29;20057;-84
2023/01/28 01:13:04;;;;;;;13.93;12.23;;;2.10;99.90;;;;;;4848337;29;20104;-85
2023/01/28 01:15:44;;;;;;;13.53;11.80;;;2.10;99.90;;;;;;4827849;29;20521;-86
2023/01/28 01:18:13;;;;;;;14.13;12.23;;;2.10;99.90;;;;;;4840901;29;20056;-85
2023/01/28 01:20:44;;;;;;;13.60;12.20;;;2.10;99.90;;;;;;4820978;29;20482;-83
2023/01/28 01:23:43;;;;;;;12.30;11.00;;;2.10;99.90;;;;;;4832245;29;20065;-85
2023/01/28 01:26:31;;;;;;;12.20;10.20;;;2.00;99.90;;;;;;4810092;29;20089;-85
2023/01/28 01:29:02;;;;;;;11.17;10.03;;;2.00;99.90;;;;;;4822745;29;20545;-85
2023/01/28 01:31:56;;;;;;;12.70;10.37;;;2.00;99.90;;;;;;4825701;29;20049;-85
2023/01/28 01:34:29;;;;;;;11.57;10.00;;;2.00;99.90;;;;;;4796500;29;20925;-85
2023/01/28 01:37:02;;;;;;;13.47;10.60;;;2.10;99.90;;;;;;4816017;29;20114;-85
2023/01/28 01:39:44;;;;;;;12.00;10.70;;;2.00;99.90;;;;;;4825258;29;20049;-86
2023/01/28 01:42:14;;;;;;;11.40;10.18;;;2.10;99.90;;;;;;4808773;29;20053;-85
2023/01/28 01:45:01;;;;;;;11.50;10.27;;;2.10;99.90;;;;;;4809037;29;20141;-85
2023/01/28 01:48:02;;;;;;;11.10;9.90;;;2.10;99.90;;;;;;4804559;29;20050;-85
2023/01/28 01:50:36;;;;;;;13.43;10.10;;;2.10;99.90;;;;;;4819316;29;20076;-88
2023/01/28 01:53:16;;;;;;;11.77;10.50;;;2.10;99.90;;;;;;4824295;29;20065;-87
2023/01/28 01:56:14;;;;;;;;;;;;;;;;;;;;;
2023/01/28 01:58:52;;;;;;;11.23;10.03;;;2.10;99.90;;;;;;4824125;29;20049;-85
2023/01/28 02:01:56;;;;;;;11.50;10.30;;;2.10;99.90;;;;;;4847543;29;20049;-85
2023/01/28 02:04:34;;;;;;;12.37;10.73;;;2.10;99.90;;;;;;4832106;29;20137;-86
2023/01/28 02:07:10;;;;;;;12.53;10.70;;;2.10;99.90;;;;;;4835532;29;20098;-85
2023/01/28 02:10:06;;;;;;;11.38;9.40;;;2.20;99.90;;;;;;4833338;29;20826;-85
2023/01/28 02:12:43;;;;;;;10.53;9.40;;;2.20;99.90;;;;;;4821658;29;20051;-85
2023/01/28 02:15:41;;;;;;;10.70;9.57;;;2.20;99.90;;;;;;4812370;29;20086;-86
2023/01/28 02:22:07;;;;;;;11.60;10.17;;;2.30;99.90;;;;;;4819919;29;20055;-85
2023/01/28 02:24:45;;;;;;;13.73;10.27;;;2.30;99.90;;;;;;4821785;29;20061;-86
2023/01/28 02:27:38;;;;;;;13.17;11.07;;;2.30;99.90;;;;;;4821659;29;20094;-86
2023/01/28 02:30:45;;;;;;;14.57;11.30;;;2.30;99.90;;;;;;4810951;29;20050;-86
2023/01/28 02:33:20;;;;;;;13.23;10.90;;;2.20;99.90;;;;;;4721717;29;20093;-85
2023/01/28 02:36:49;;;;;;;12.80;10.53;;;2.20;99.90;;;;;;4806514;29;20042;-85
2023/01/28 02:39:40;;;;;;;15.77;12.07;;;2.20;99.90;;;;;;4795798;29;20146;-85
2023/01/28 02:42:15;;;;;;;14.27;11.20;;;2.20;99.90;;;;;;4821425;29;20503;-85
2023/01/28 02:44:43;;;;;;;14.80;12.00;;;2.30;99.90;;;;;;4844874;29;20057;-85
2023/01/28 02:50:12;;;;;;;15.23;12.20;;;2.20;99.90;;;;;;4841760;29;20081;-85
2023/01/28 02:55:59;;;;;;;;;;;2.20;99.90;;;;;;4861137;29;20076;-85
2023/01/28 02:59:29;;;;;;;15.80;11.57;;;2.20;99.90;;;;;;4839176;29;19924;-85
2023/01/28 03:02:00;;;;;;;14.93;11.60;;;2.20;99.90;;;;;;4843609;29;20049;-85
2023/01/28 03:04:54;;;;;;;17.57;11.87;;;2.30;99.90;;;;;;4838732;29;20048;-85
2023/01/28 03:07:35;;;;;;;15.63;11.80;;;2.30;99.90;;;;;;4837358;29;20516;-86
2023/01/28 03:10:18;;;;;;;;;;;;;;;;;;;;;
2023/01/28 03:36:54;;;;;;;15.10;11.10;;;2.30;99.90;;;;;;4852007;29;20045;-86
2023/01/28 03:39:28;;;;;;;15.00;11.80;;;2.20;99.90;;;;;;4840806;29;20121;-86
2023/01/28 03:42:07;;;;;;;14.43;11.20;;;2.20;99.90;;;;;;4839904;29;20116;-85
2023/01/28 03:44:55;;;;;;;12.83;10.10;;;2.20;99.90;;;;;;4838613;29;20129;-85
2023/01/28 03:47:26;;;;;;;12.50;10.63;;;2.30;99.90;;;;;;4826283;29;20049;-87
2023/01/28 03:50:02;;;;;;;13.80;11.07;;;2.30;99.90;;;;;;4852255;29;20052;-86
2023/01/28 03:52:36;;;;;;;12.17;9.83;;;2.30;99.90;;;;;;4842173;29;20059;-87
2023/01/28 03:55:12;;;;;;;14.10;11.00;;;2.30;99.90;;;;;;4838225;29;20060;-87
2023/01/28 03:57:47;;;;;;;13.23;10.80;;;2.30;99.90;;;;;;4838016;29;20098;-86
2023/01/28 04:00:16;;;;;;;13.13;10.53;;;2.20;99.90;;;;;;4827794;29;20393;-87
2023/01/28 04:02:45;;;;;;;14.67;11.23;;;2.20;99.90;;;;;;4847926;29;20482;-86
2023/01/28 04:05:49;;;;;;;12.37;10.53;;;2.30;99.90;;;;;;4837382;29;20063;-87
2023/01/28 04:11:42;;;;;;;12.97;10.33;;;2.20;99.90;;;;;;4856873;29;20056;-86
2023/01/28 04:14:14;;;;;;;13.23;10.77;;;2.20;99.90;;;;;;4833228;29;20053;-86
2023/01/28 04:16:49;;;;;;;13.03;10.53;;;2.10;99.90;;;;;;4833684;29;20045;-86
2023/01/28 04:19:39;;;;;;;12.37;10.43;;;2.10;99.90;;;;;;4851191;29;20053;-86
2023/01/28 04:22:19;;;;;;;13.03;10.30;;;2.10;99.90;;;;;;4852858;29;20038;-87
2023/01/28 04:25:03;;;;;;;13.13;10.27;;;2.10;99.90;;;;;;4843387;29;20059;-86
2023/01/28 04:27:40;;;;;;;15.23;10.30;;;2.10;99.90;;;;;;4862932;29;20060;-86
2023/01/28 04:30:14;;;;;;;13.97;10.23;;;2.10;99.90;;;;;;4837496;29;20037;-86
2023/01/28 04:32:45;;;;;;;13.00;10.00;;;2.20;99.90;;;;;;4867045;29;20049;-87
2023/01/28 04:35:32;;;;;;;13.13;9.98;;;2.20;99.90;;;;;;4851933;29;20052;-86
2023/01/28 04:38:16;;;;;;;12.30;9.70;;;2.20;99.90;;;;;;4832176;29;20101;-86
2023/01/28 04:40:51;;;;;;;13.25;10.27;;;2.20;99.90;;;;;;4834380;29;20140;-86
2023/01/28 04:43:22;;;;;;;12.10;9.67;;;2.20;99.90;;;;;;4853330;29;20395;-87
2023/01/28 04:45:50;;;;;;;13.57;10.73;;;2.20;99.90;;;;;;4818376;29;20050;-86
2023/01/28 04:48:35;;;;;;;13.05;10.23;;;2.20;99.90;;;;;;4837210;29;20281;-87
2023/01/28 04:51:09;;;;;;;14.17;10.53;;;2.20;99.90;;;;;;4845345;29;20045;-87
2023/01/28 04:53:37;;;;;;;12.67;9.73;;;2.20;99.90;;;;;;4828395;29;20060;-86
2023/01/28 04:56:14;;;;;;;12.90;9.75;;;2.20;99.90;;;;;;4800854;29;20561;-87
2023/01/28 04:58:54;;;;;;;16.23;10.53;;;2.20;99.90;;;;;;4831537;29;20454;-87
2023/01/28 05:01:23;;;;;;;12.97;10.40;;;2.20;99.90;;;;;;4833658;29;20055;-86
2023/01/28 05:03:55;;;;;;;13.23;10.33;;;2.10;99.90;;;;;;4849183;29;20386;-87
2023/01/28 05:06:23;;;;;;;13.50;9.93;;;2.10;99.90;;;;;;4849222;29;20044;-86
2023/01/28 05:08:52;;;;;;;11.70;9.32;;;2.10;99.90;;;;;;4834071;29;20432;-86
2023/01/28 05:11:19;;;;;;;11.87;9.67;;;2.10;99.90;;;;;;4844886;29;20045;-86
2023/01/28 05:13:45;;;;;;;15.53;10.00;;;2.10;99.90;;;;;;4831180;29;20414;-86
2023/01/28 05:16:14;;;;;;;10.13;9.10;;;2.10;99.90;;;;;;4844955;29;20078;-85
2023/01/28 05:18:46;;;;;;;9.17;8.10;;;2.00;99.90;;;;;;4838396;29;20046;-85
2023/01/28 05:21:12;;;;;;;;;;;2.00;99.90;;;;;;4844671;29;20079;-86
2023/01/28 05:23:43;;;;;;;10.00;7.40;;;1.90;99.90;;;;;;4839546;29;19971;-86
2023/01/28 05:26:12;;;;;;;8.73;7.30;;;1.90;99.90;;;;;;4831329;29;20045;-86
2023/01/28 05:28:38;;;;;;;9.50;7.13;;;1.90;99.90;;;;;;4855027;29;20049;-85
2023/01/28 05:31:05;;;;;;;10.10;7.83;;;2.00;99.90;;;;;;4816139;29;20413;-86
2023/01/28 05:33:34;;;;;;;9.20;7.37;;;2.00;99.90;;;;;;4834166;29;20045;-86
2023/01/28 05:36:00;;;;;;;9.27;7.93;;;2.00;99.90;;;;;;4847988;29;20128;-86
2023/01/28 05:38:29;;;;;;;10.57;7.53;;;2.00;99.90;;;;;;4832379;29;20131;-86
2023/01/28 05:40:55;;;;;;;9.50;8.13;;;2.00;99.90;;;;;;4832515;29;20058;-86
2023/01/28 05:43:26;;;;;;;9.63;8.23;;;1.90;99.90;;;;;;4840631;29;20060;-86
2023/01/28 05:45:54;;;;;;;10.10;8.27;;;1.90;99.90;;;;;;4844986;29;20053;-86
2023/01/28 05:48:20;;;;;;;11.17;8.27;;;1.90;99.90;;;;;;4829703;29;20193;-86
2023/01/28 05:50:50;;;;;;;8.90;7.17;;;1.90;99.90;;;;;;4829591;29;20561;-86
2023/01/28 05:53:18;;;;;;;9.77;7.53;;;1.90;99.90;;;;;;4844696;29;20049;-86
2023/01/28 05:56:20;;;;;;;8.87;7.37;;;1.90;99.90;;;;;;4829163;29;20562;-86
2023/01/28 05:58:46;;;;;;;8.60;7.57;;;1.90;99.90;;;;;;4808922;29;20181;-86
2023/01/28 06:01:20;;;;;;;11.07;7.97;;;1.90;99.90;;;;;;4846698;29;20362;-87
2023/01/28 06:04:02;;;;;;;9.47;7.83;;;2.00;99.90;;;;;;4828757;29;20391;-86
2023/01/28 06:06:31;;;;;;;9.73;7.77;;;2.00;99.90;;;;;;4813942;29;20053;-86
2023/01/28 06:08:59;;;;;;;10.00;8.00;;;1.90;99.90;;;;;;4823857;29;20049;-86
2023/01/28 06:11:33;;;;;;;9.80;8.00;;;1.90;99.90;;;;;;4861749;29;20446;-86
2023/01/28 06:14:19;;;;;;;9.43;8.33;;;1.90;99.90;;;;;;4847245;29;20041;-86
2023/01/28 06:16:45;;;;;;;9.30;7.83;;;1.90;99.90;;;;;;4828564;29;20081;-86
2023/01/28 06:19:25;;;;;;;9.27;8.23;;;1.90;99.90;;;;;;4821885;29;20128;-86
2023/01/28 06:22:02;;;;;;;10.33;7.90;;;1.90;99.90;;;;;;4813772;29;20134;-85
2023/01/28 06:24:34;;;;;;;9.63;7.90;;;2.00;99.90;;;;;;4815268;29;20049;-85
2023/01/28 06:27:05;;;;;;;10.32;8.90;;;1.90;99.90;;;;;;4841311;29;20049;-86
2023/01/28 06:29:32;;;;;;;9.85;7.57;;;1.90;99.90;;;;;;4831272;29;20460;-86
2023/01/28 06:31:58;;;;;;;11.00;7.93;;;1.90;99.90;;;;;;4845203;29;20042;-86
2023/01/28 06:34:31;;;;;;;9.10;8.10;;;1.90;99.90;;;;;;4839970;29;20065;-86
2023/01/28 06:36:57;;;;;;;8.53;7.60;;;1.90;99.90;;;;;;4856956;29;20049;-86
2023/01/28 06:39:25;;;;;;;9.37;7.70;;;1.90;99.90;;;;;;4850145;29;20045;-86
2023/01/28 06:41:52;;;;;;;10.97;7.53;;;2.00;99.90;;;;;;4827890;29;20486;-86
2023/01/28 06:44:22;;;;;;;11.97;8.27;;;1.90;99.90;;;;;;4843068;29;20105;-86
2023/01/28 06:46:51;;;;;;;12.57;8.43;;;1.90;99.90;;;;;;4828410;29;20474;-86
2023/01/28 06:49:20;;;;;;;8.27;7.43;;;1.90;99.90;;;;;;4810838;29;20054;-86
2023/01/28 06:51:46;;;;;;;9.13;8.13;;;2.00;99.90;;;;;;4828693;29;20045;-85
2023/01/28 06:54:24;;;;;;;9.83;7.97;;;2.00;99.90;;;;;;4828811;29;20049;-86
2023/01/28 06:57:11;;;;;;;8.93;8.00;;;2.00;99.90;;;;;;4810723;29;20102;-86
2023/01/28 06:59:48;;;;;;;9.07;7.93;;;2.00;99.90;;;;;;4807623;29;20045;-86
2023/01/28 07:02:35;;;;;;;11.43;8.70;;;2.00;99.90;;;;;;4817204;29;20546;-86
2023/01/28 07:05:10;;;;;;;12.10;8.20;;;2.00;99.90;;;;;;4828210;29;20517;-86
2023/01/28 07:07:36;;;;;;;11.15;8.73;;;2.00;99.90;;;;;;4828116;29;20111;-86
2023/01/28 07:10:05;;;;;;;10.97;8.97;;;2.00;99.90;;;;;;4828918;29;20140;-86
2023/01/28 07:12:31;;;;;;;9.93;8.37;;;1.90;99.90;;;;;;4830541;29;20045;-85
2023/01/28 07:15:02;;;;;;;10.90;9.47;;;2.00;99.90;;;;;;4824590;29;20038;-85
2023/01/28 07:17:31;;;;;;;13.10;9.73;;;1.90;99.90;;;;;;4821211;29;20135;-87
2023/01/28 07:20:07;;;;;;;12.37;9.63;;;1.90;99.90;;;;;;4828238;29;20098;-87
2023/01/28 07:22:53;;;;;;;16.20;10.23;;;1.90;99.90;;;;;;4834961;29;20120;-86
2023/01/28 07:25:30;;;;;;;11.80;10.00;;;1.90;99.90;;;;;;4822704;29;20060;-88
2023/01/28 07:28:13;;;;;;;12.33;10.50;;;1.90;99.90;;;;;;4816506;29;20488;-85
2023/01/28 07:30:47;;;;;;;13.00;10.67;;;1.90;99.90;;;;;;4809307;29;20088;-87
2023/01/28 07:33:26;;;;;;;11.37;10.17;;;1.90;99.90;;;;;;4810216;29;20145;-86
2023/01/28 07:35:54;;;;;;;12.73;10.53;;;1.90;99.90;;;;;;4809534;29;20046;-86
2023/01/28 07:38:28;;;;;;;11.85;10.32;;;1.90;99.90;;;;;;4820481;29;20271;-86
2023/01/28 07:41:00;;;;;;;11.67;10.47;;;1.90;99.90;;;;;;4809272;29;20049;-86
2023/01/28 07:43:39;;;;;;;11.07;9.90;;;1.90;99.90;;;;;;4828135;29;20065;-86
2023/01/28 07:46:05;;;;;;;13.53;9.93;;;1.90;99.90;;;;;;4842700;29;20522;-85
2023/01/28 07:49:00;;;;;;;13.37;10.30;;;1.90;99.90;;;;;;4853829;29;20089;-87
2023/01/28 07:51:54;;;;;;;11.43;10.10;;;1.90;99.90;;;;;;4844797;29;20414;-86
2023/01/28 07:54:30;;;;;;;13.00;10.30;;;1.90;99.90;;;;;;4816611;29;20054;-86
2023/01/28 07:57:01;;;;;;;13.43;10.63;;;1.90;99.90;;;;;;4820148;29;20479;-86
2023/01/28 07:59:30;;;;;;;13.23;10.93;;;1.90;99.90;;;;;;4826834;29;20041;-86
2023/01/28 08:01:56;;;;;;;12.50;10.27;;;1.90;99.90;;;;;;4844803;29;20038;-86
2023/01/28 08:04:21;;;;;;;12.67;10.90;;;1.80;99.90;;;;;;4831748;29;20054;-87
2023/01/28 08:06:47;;;;;;;13.67;10.87;;;1.80;99.90;;;;;;4843298;29;20397;-87
2023/01/28 08:09:13;;;;;;;14.77;12.20;;;1.80;99.90;;;;;;4828609;29;20128;-87
2023/01/28 08:11:55;;;;;;;14.30;11.60;;;1.70;99.90;;;;;;4828264;29;20102;-87
2023/01/28 08:14:23;;;;;;;13.27;11.23;;;1.70;99.90;;;;;;4854721;29;20045;-87
2023/01/28 08:17:00;;;;;;;16.60;12.47;;;1.70;99.90;;;;;;4828392;29;20049;-88
2023/01/28 08:19:29;;;;;;;14.90;12.00;;;1.70;99.90;;;;;;4816546;29;20116;-86
2023/01/28 08:22:20;;;;;;;13.67;11.40;;;1.70;99.90;;;;;;4831369;29;20124;-87
2023/01/28 08:25:21;;;;;;;14.37;11.67;;;1.70;99.90;;;;;;4816836;29;20064;-87
2023/01/28 08:28:03;;;;;;;14.40;11.60;;;1.80;99.90;;;;;;4828113;29;20474;-87
2023/01/28 08:30:32;;;;;;;14.67;11.70;;;1.80;99.90;;;;;;4821549;29;20052;-86
2023/01/28 08:33:00;;;;;;;15.50;12.40;;;1.80;99.90;;;;;;4814984;29;20128;-87
2023/01/28 08:35:30;;;;;;;13.57;11.40;;;1.90;99.90;;;;;;4826392;29;20049;-86
2023/01/28 08:37:59;;;;;;;16.67;12.10;;;1.90;99.90;;;;;;4844608;29;20037;-86
2023/01/28 08:40:37;;;;;;;14.70;11.73;;;2.00;99.90;;;;;;4816910;29;20059;-89
2023/01/28 08:43:17;;;;;;;12.20;10.87;;;2.10;99.90;;;;;;4841572;29;20081;-86
2023/01/28 08:45:49;;;;;;;13.70;11.07;;;2.10;99.90;;;;;;4832665;29;20390;-86
2023/01/28 08:48:29;;;;;;;12.83;10.97;;;2.20;99.90;;;;;;4827797;29;20054;-87
2023/01/28 08:51:50;;;;;;;14.07;10.90;;;2.20;99.90;;;;;;4811726;29;20477;-86
2023/01/28 08:54:01;;;;;;;12.97;10.43;;;2.40;99.90;;;;;;4829670;29;20132;-87
2023/01/28 08:56:59;;;;;;;12.57;10.20;;;2.50;99.90;;;;;;4814976;29;20042;-86
2023/01/28 08:59:33;;;;;;;13.07;9.97;;;2.70;99.90;;;;;;4818538;29;20447;-87
2023/01/28 09:02:23;;;;;;;12.60;9.50;;;2.70;99.90;;;;;;4846155;29;20128;-86
2023/01/28 09:05:03;;;;;;;10.60;9.27;;;2.70;99.90;;;;;;4829044;29;20060;-87
2023/01/28 09:07:29;;;;;;;10.33;9.07;;;2.60;99.90;;;;;;4827643;29;20368;-86
2023/01/28 09:09:57;;;;;;;10.83;8.37;;;2.60;99.90;;;;;;4813315;29;20355;-84
2023/01/28 09:12:54;;;;;;;11.67;9.30;;;2.60;99.90;;;;;;4829256;29;20056;-86
2023/01/28 09:15:33;;;;;;;11.37;9.00;;;2.60;99.90;;;;;;4831816;29;20076;-87
2023/01/28 09:18:02;;;;;;;10.93;8.87;;;2.60;99.90;;;;;;4824067;29;20498;-87
2023/01/28 09:20:54;;;;;;;10.53;8.60;;;2.60;99.90;;;;;;4808420;29;20046;-84
2023/01/28 09:23:38;;;;;;;10.33;8.90;;;2.70;99.90;;;;;;4816734;29;20056;-87
2023/01/28 09:26:10;;;;;;;13.33;9.50;;;2.70;99.90;;;;;;4854764;29;20064;-87
2023/01/28 09:29:15;;;;;;;11.80;9.75;;;2.70;99.90;;;;;;4812861;29;20046;-87
2023/01/28 09:32:23;;;;;;;11.00;9.17;;;2.80;99.90;;;;;;4812302;29;20054;-87
2023/01/28 09:35:20;;;;;;;;;;;;;;;;;;;;;
2023/01/28 09:52:35;;;;;;;11.73;8.50;;;2.80;99.90;;;;;;4703895;30;20148;-87
2023/01/28 09:58:55;;;;;;;11.07;8.93;;;3.00;99.90;;;;;;4725062;30;20070;-86
2023/01/28 10:02:06;;;;;;;13.90;9.17;;;3.10;99.90;;;;;;4721866;30;20088;-87
2023/01/28 10:05:29;;;;;;;10.70;8.87;;;3.20;99.90;;;;;;4703766;30;20615;-88
2023/01/28 10:08:16;;;;;;;10.33;7.80;;;3.30;99.90;;;;;;4704083;30;20064;-86
2023/01/28 10:11:20;;;;;;;7.57;6.70;;;3.40;99.90;;;;;;4717657;30;20452;-87
2023/01/28 10:14:01;;;;;;;12.40;8.03;;;3.60;99.90;;;;;;4708592;30;20068;-87
2023/01/28 10:16:55;;;;;;;8.57;7.33;;;3.70;99.90;;;;;;4682586;30;20527;-87
2023/01/28 10:20:30;;;;;;;;;;;;;;;;;;;;;
2023/01/28 10:23:24;;;;;;;8.17;6.97;;;3.90;99.90;;;;;;4735945;30;20051;-87
2023/01/28 10:26:35;;;;;;;9.73;7.47;;;3.90;99.90;;;;;;4756118;29;20081;-87
2023/01/28 10:29:51;;;;;;;10.77;7.10;;;3.80;99.90;;;;;;4808221;29;20052;-87
2023/01/28 10:36:08;;;;;;;9.13;6.57;;;4.00;99.90;;;;;;4752854;29;20055;-89
2023/01/28 10:39:08;;;;;;;8.85;6.97;;;4.40;99.90;;;;;;4769460;29;20380;-87
2023/01/28 10:41:39;;;;;;;8.67;6.87;;;4.60;99.90;;;;;;4812401;29;20503;-88
2023/01/28 10:44:48;;;;;;;7.63;6.53;;;4.70;99.90;;;;;;4806852;29;20093;-88
2023/01/28 10:47:41;;;;;;;10.00;6.83;;;4.80;99.90;;;;;;4807763;29;20466;-87
2023/01/28 10:50:30;;;;;;;;;;;;;;;;;;;;;
2023/01/28 10:53:21;;;;;;;9.45;6.70;;;4.70;99.90;;;;;;4861321;29;20078;-88
2023/01/28 10:59:28;;;;;;;10.37;8.47;;;4.60;99.90;;;;;;4821205;29;20052;-88
2023/01/28 11:02:04;;;;;;;10.03;7.83;;;4.60;99.90;;;;;;4839247;29;20579;-87
2023/01/28 11:05:01;;;;;;;9.57;7.50;;;4.50;99.90;;;;;;4841524;29;20080;-88
2023/01/28 11:07:47;;;;;;;9.90;7.17;;;4.40;99.90;;;;;;4828293;29;20045;-88
2023/01/28 11:10:28;;;;;;;9.13;7.37;;;4.30;99.90;;;;;;4811131;29;20045;-88
2023/01/28 11:16:52;;;;;;;9.77;7.13;;;4.00;99.90;;;;;;4722460;30;20399;-89
2023/01/28 11:19:28;;;;;;;;;;;4.20;99.90;;;;;;4805654;29;20133;-88
2023/01/28 11:26:02;;;;;;;8.13;6.87;;;4.50;99.90;;;;;;4820609;29;20042;-87
2023/01/28 11:29:09;;;;;;;9.03;6.83;;;4.70;99.90;;;;;;4782275;29;20617;-88
2023/01/28 11:35:34;;;;;;;9.30;7.23;;;5.00;99.90;;;;;;4793768;29;20084;-87
2023/01/28 11:38:33;;;;;;;9.10;6.40;;;5.00;99.90;;;;;;4784710;29;20050;-88
2023/01/28 11:41:41;;;;;;;7.97;6.07;;;5.00;99.90;;;;;;4784931;29;20038;-87
2023/01/28 11:44:18;;;;;;;9.60;6.63;;;5.00;99.90;;;;;;4800814;29;20081;-87
2023/01/28 11:47:06;;;;;;;8.63;6.57;;;5.10;99.90;;;;;;4815646;29;20120;-87
2023/01/28 11:50:23;;;;;;;7.87;6.00;;;5.10;99.90;;;;;;4814303;29;20279;-88
2023/01/28 11:53:00;;;;;;;6.90;5.53;;;5.10;99.90;;;;;;4791759;29;20513;-87
2023/01/28 11:55:49;;;;;;;8.80;6.80;;;5.00;99.90;;;;;;4812968;29;20074;-88
2023/01/28 11:58:49;;;;;;;8.70;6.80;;;5.00;99.90;;;;;;4818935;29;20038;-88
2023/01/28 12:02:10;;;;;;;8.07;6.30;;;5.00;99.90;;;;;;4826936;29;20132;-88
2023/01/28 12:04:59;;;;;;;8.90;6.70;;;5.10;99.90;;;;;;4795429;29;20491;-87
2023/01/28 12:07:49;;;;;;;7.43;6.13;;;5.10;99.90;;;;;;4829184;29;20486;-87
2023/01/28 12:10:37;;;;;;;10.47;7.00;;;5.10;99.90;;;;;;4847839;29;20049;-87
2023/01/28 12:13:33;;;;;;;10.47;7.50;;;5.20;99.90;;;;;;4852046;29;20053;-87
2023/01/28 12:16:23;;;;;;;11.83;7.23;;;5.20;99.90;;;;;;4833564;29;20401;-87
2023/01/28 12:19:32;;;;;;;8.40;7.10;;;5.20;99.90;;;;;;4841900;29;20486;-87
2023/01/28 12:22:36;;;;;;;9.70;6.83;;;5.30;99.90;;;;;;4826488;29;20125;-88
2023/01/28 12:25:45;;;;;;;;;;;;;;;;;;;;;
2023/01/28 12:28:40;;;;;;;9.63;7.33;;;5.40;99.90;;;;;;4795794;29;20051;-88
2023/01/28 12:31:51;;;;;;;9.47;7.70;;;5.30;99.90;;;;;;4757685;30;20051;-88
2023/01/28 12:38:20;;;;;;;10.13;6.97;;;5.30;99.90;;;;;;4789155;29;20051;-88
2023/01/28 12:41:14;;;;;;;10.47;6.70;;;5.30;99.90;;;;;;4793033;29;20046;-87
2023/01/28 12:44:24;;;;;;;9.47;6.40;;;5.20;99.90;;;;;;4809666;29;20056;-87
2023/01/28 12:46:58;;;;;;;8.83;6.37;;;5.10;99.90;;;;;;4820579;29;20104;-86
2023/01/28 12:49:59;;;;;;;10.23;6.67;;;5.00;99.90;;;;;;4845033;29;20064;-85
2023/01/28 12:52:42;;;;;;;9.43;6.57;;;5.10;99.90;;;;;;4821560;29;20096;-87
2023/01/28 12:56:00;;;;;;;8.43;6.67;;;5.10;99.90;;;;;;4804101;29;20038;-87
2023/01/28 12:59:03;;;;;;;9.80;6.60;;;5.20;99.90;;;;;;4780026;29;20051;-87
2023/01/28 13:12:08;;;;;;;9.83;7.10;;;5.40;99.90;;;;;;4778779;29;20055;-87
2023/01/28 13:15:21;;;;;;;11.07;7.40;;;5.50;99.90;;;;;;4780689;29;20400;-87
2023/01/28 13:18:21;;;;;;;12.20;8.37;;;5.50;99.90;;;;;;4773941;29;20479;-88
2023/01/28 13:24:39;;;;;;;11.63;8.07;;;5.70;99.90;;;;;;4807494;29;20061;-88
2023/01/28 13:27:40;;;;;;;10.93;7.97;;;5.90;99.90;;;;;;4797613;29;20061;-87
2023/01/28 13:30:46;;;;;;;10.77;8.38;;;5.90;99.90;;;;;;4822574;29;20110;-88
2023/01/28 13:33:34;;;;;;;12.27;8.27;;;5.90;99.90;;;;;;4836787;29;20140;-86
2023/01/28 13:36:26;;;;;;;10.90;8.73;;;5.90;99.90;;;;;;4852627;29;20052;-88
2023/01/28 13:39:29;;;;;;;12.45;8.25;;;5.80;99.90;;;;;;4848604;29;20084;-88
2023/01/28 13:42:24;;;;;;;11.20;8.07;;;5.70;99.90;;;;;;4827554;29;20060;-87
2023/01/28 13:44:54;;;;;;;13.37;8.83;;;5.50;99.90;;;;;;4830763;29;20459;-87
2023/01/28 13:47:39;;;;;;;12.60;8.50;;;5.50;99.90;;;;;;4829738;29;20053;-87
2023/01/28 13:50:18;;;;;;;13.30;9.60;;;5.60;99.90;;;;;;4849965;29;20893;-88
2023/01/28 13:53:16;;;;;;;12.20;8.87;;;5.60;99.90;;;;;;4840301;29;20494;-88
2023/01/28 13:56:20;;;;;;;12.13;8.67;;;5.70;99.90;;;;;;4780760;29;20057;-87
2023/01/28 13:59:22;;;;;;;13.37;9.60;;;5.70;99.90;;;;;;4831995;29;20049;-89
2023/01/28 14:01:59;;;;;;;13.43;9.63;;;5.70;99.90;;;;;;4848846;29;20045;-88
2023/01/28 14:05:01;;;;;;;12.83;8.70;;;5.70;99.90;;;;;;4859951;29;20108;-87
2023/01/28 14:07:30;;;;;;;13.33;7.83;;;5.80;99.90;;;;;;4844409;29;20636;-86
2023/01/28 14:10:31;;;;;;;14.93;8.33;;;5.70;99.90;;;;;;4841747;29;20577;-86
2023/01/28 14:13:32;;;;;;;17.53;9.77;;;5.80;99.90;;;;;;4838114;29;20490;-86
2023/01/28 14:16:26;;;;;;;16.70;10.03;;;5.90;99.90;;;;;;4828436;29;20050;-87
2023/01/28 14:18:52;;;;;;;19.30;11.13;;;5.90;99.90;;;;;;4850207;29;20042;-87
2023/01/28 14:21:27;;;;;;;19.27;11.50;;;5.90;99.90;;;;;;4840608;29;20041;-87
2023/01/28 14:24:00;;;;;;;19.10;12.17;;;5.90;99.90;;;;;;4844323;29;20041;-87
2023/01/28 14:26:48;;;;;;;18.93;11.50;;;5.80;99.90;;;;;;4829713;29;20210;-87
2023/01/28 14:29:52;;;;;;;20.50;11.90;;;5.80;99.90;;;;;;4854514;29;20490;-87
2023/01/28 14:32:25;;;;;;;21.87;12.30;;;5.70;99.90;;;;;;4849430;29;20411;-87
2023/01/28 14:34:53;;;;;;;20.87;12.60;;;5.60;99.90;;;;;;4844203;29;20053;-87
2023/01/28 14:37:27;;;;;;;19.07;11.33;;;5.60;99.90;;;;;;4829487;29;20057;-86
2023/01/28 14:40:06;;;;;;;18.92;11.93;;;5.50;99.90;;;;;;4830420;29;20069;-86
2023/01/28 14:42:39;;;;;;;18.43;11.17;;;5.40;99.90;;;;;;4848156;29;20096;-86
2023/01/28 14:45:37;;;;;;;20.00;11.87;;;5.40;99.90;;;;;;4847860;29;20061;-85
2023/01/28 14:48:37;;;;;;;19.23;11.47;;;5.40;99.90;;;;;;4839316;29;20045;-88
2023/01/28 14:51:27;;;;;;;18.20;12.13;;;5.30;99.90;;;;;;4836069;29;20033;-87
2023/01/28 14:54:31;;;;;;;17.73;11.43;;;5.30;99.90;;;;;;4847223;29;20044;-86
2023/01/28 14:57:32;;;;;;;17.37;10.07;;;5.30;99.90;;;;;;4829022;29;20057;-86
2023/01/28 15:00:01;;;;;;;16.87;10.77;;;5.30;99.90;;;;;;4832411;29;20116;-86
2023/01/28 15:02:35;;;;;;;16.03;9.40;;;5.30;99.90;;;;;;4839391;29;20044;-86
2023/01/28 15:05:16;;;;;;;16.20;9.83;;;5.30;99.90;;;;;;4847502;29;20049;-87
2023/01/28 15:07:45;;;;;;;16.38;9.95;;;5.30;99.90;;;;;;4847385;29;20431;-86
2023/01/28 15:10:29;;;;;;;12.77;8.73;;;5.30;99.90;;;;;;4847124;29;20045;-86
2023/01/28 15:13:06;;;;;;;14.13;9.07;;;5.20;99.90;;;;;;4839021;29;20053;-86
2023/01/28 15:15:33;;;;;;;13.17;8.80;;;5.20;99.90;;;;;;4847335;29;20051;-86
2023/01/28 15:18:15;;;;;;;16.37;9.67;;;5.20;99.90;;;;;;4831526;29;20048;-86
2023/01/28 15:20:51;;;;;;;24.67;13.50;;;5.20;99.90;;;;;;4843533;29;20067;-87
2023/01/28 15:23:47;;;;;;;48.47;25.93;;;5.20;99.90;;;;;;4846926;29;20044;-87
2023/01/28 15:26:41;;;;;;;27.40;17.17;;;5.20;99.90;;;;;;4806739;29;20057;-87
2023/01/28 15:29:23;;;;;;;23.38;16.38;;;5.20;99.90;;;;;;4850605;29;20074;-87
2023/01/28 15:31:52;;;;;;;13.30;8.50;;;5.10;99.90;;;;;;4846255;29;20049;-87
2023/01/28 15:34:41;;;;;;;13.17;8.00;;;5.10;99.90;;;;;;4838916;29;20045;-87
2023/01/28 15:37:09;;;;;;;10.93;7.53;;;5.10;99.90;;;;;;4826810;29;20042;-86
2023/01/28 15:39:37;;;;;;;13.90;7.50;;;5.10;99.90;;;;;;4828241;29;20042;-86